Terminal Aerodrome Forecast
Issued by NWS

Home | Current Version | Previous Version | Text Only | Print | Product List | Glossary On
Versions: 1 2 3 4 5 6 7 8 9 10 11 12 13 14
000
FTUS42 TJSJ 161720
TAFISX
TAF
TISX 161720Z 1618/1718 06012G22KT P6SM FEW025 SCT050
     FM162300 04011KT P6SM VCSH SCT025 SCT050
     FM171430 06016G22KT P6SM SCT030 SCT070=

USA.gov is the U.S. government's official web portal to all federal, state and local government web resources and services.